createdAt,value
2023-02-11T00:00:36.178Z,99.92
2023-02-11T00:03:04.061Z,99.93
2023-02-11T00:05:31.810Z,99.91
2023-02-11T00:08:01.048Z,99.83
2023-02-11T00:10:28.794Z,99.95
2023-02-11T00:12:56.943Z,99.59
2023-02-11T00:15:24.732Z,99.43
2023-02-11T00:17:52.461Z,99.37
2023-02-11T00:20:20.532Z,99.00
2023-02-11T00:22:48.314Z,98.97
2023-02-11T00:25:17.395Z,99.13
2023-02-11T00:27:45.155Z,99.04
2023-02-11T00:30:13.526Z,98.60
2023-02-11T00:32:42.607Z,97.70
2023-02-11T00:35:10.356Z,96.88
2023-02-11T00:37:38.173Z,96.29
2023-02-11T00:40:06.975Z,95.46
2023-02-11T00:42:37.412Z,95.25
2023-02-11T00:45:05.999Z,94.97
2023-02-11T00:47:33.732Z,95.17
2023-02-11T00:50:01.534Z,94.58
2023-02-11T00:52:29.867Z,94.24
2023-02-11T00:54:57.810Z,94.32
2023-02-11T00:57:25.553Z,93.83
2023-02-11T00:59:54.683Z,93.64
2023-02-11T01:02:22.410Z,92.87
2023-02-11T01:04:50.206Z,92.18
2023-02-11T01:07:18.046Z,91.84
2023-02-11T01:09:45.755Z,91.76
2023-02-11T01:12:13.588Z,91.80
2023-02-11T01:14:41.363Z,92.05
2023-02-11T01:17:10.615Z,92.11
2023-02-11T01:19:38.666Z,92.43
2023-02-11T01:22:06.656Z,93.33
2023-02-11T01:24:34.658Z,93.66
2023-02-11T01:27:02.429Z,94.48
2023-02-11T01:29:30.317Z,93.93
2023-02-11T01:31:58.071Z,94.23
2023-02-11T01:34:27.355Z,94.37
2023-02-11T01:36:58.453Z,94.57
2023-02-11T01:39:26.281Z,94.90
2023-02-11T01:41:54.401Z,94.98
2023-02-11T01:44:24.531Z,95.34
2023-02-11T01:46:52.353Z,95.57
2023-02-11T01:49:24.114Z,96.08
2023-02-11T01:51:57.708Z,96.29
2023-02-11T01:54:46.976Z,96.57
2023-02-11T01:57:25.064Z,96.89
2023-02-11T02:00:03.904Z,96.77
2023-02-11T02:02:36.068Z,97.21
2023-02-11T02:05:09.356Z,97.39
2023-02-11T02:07:46.830Z,97.86
2023-02-11T02:10:18.605Z,97.92
2023-02-11T02:12:46.445Z,98.13
2023-02-11T02:15:28.772Z,98.11
2023-02-11T02:18:10.662Z,98.60
2023-02-11T02:21:16.955Z,98.38
2023-02-11T02:24:18.136Z,99.15
2023-02-11T02:27:09.631Z,99.12
2023-02-11T02:30:04.043Z,98.56
2023-02-11T02:32:44.398Z,98.19
2023-02-11T02:35:20.685Z,98.24
2023-02-11T02:37:56.756Z,98.10
2023-02-11T02:40:30.394Z,97.36
2023-02-11T02:42:59.703Z,96.80
2023-02-11T02:45:27.751Z,96.61
2023-02-11T02:47:57.092Z,96.30
2023-02-11T02:50:30.638Z,96.16
2023-02-11T02:53:12.881Z,95.57
2023-02-11T02:55:53.816Z,95.08
2023-02-11T02:58:48.566Z,95.39
2023-02-11T03:01:26.225Z,96.14
2023-02-11T03:04:06.969Z,97.12
2023-02-11T03:06:44.286Z,96.82
2023-02-11T03:09:18.359Z,97.45
2023-02-11T03:11:46.624Z,97.75
2023-02-11T03:14:18.068Z,98.01
2023-02-11T03:16:47.612Z,97.94
2023-02-11T03:19:21.526Z,98.41
2023-02-11T03:21:52.759Z,97.69
2023-02-11T03:24:25.761Z,97.67
2023-02-11T03:26:55.538Z,98.15
2023-02-11T03:29:34.163Z,97.75
2023-02-11T03:32:08.124Z,98.39
2023-02-11T03:34:43.483Z,98.93
2023-02-11T03:37:17.316Z,99.52
2023-02-11T03:39:49.814Z,99.18
2023-02-11T03:42:18.579Z,98.89
2023-02-11T03:44:51.078Z,98.78
2023-02-11T03:47:22.345Z,99.03
2023-02-11T03:49:54.295Z,98.10
2023-02-11T03:52:24.242Z,96.96
2023-02-11T03:54:56.949Z,97.10
2023-02-11T03:57:25.284Z,97.24
2023-02-11T03:59:55.368Z,98.06
2023-02-11T04:02:25.272Z,98.25
2023-02-11T04:04:54.519Z,98.70
2023-02-11T04:07:22.331Z,98.83
2023-02-11T04:09:50.573Z,99.79
2023-02-11T04:12:19.714Z,99.59
2023-02-11T04:14:47.536Z,100.00
2023-02-11T04:17:15.289Z,100.00
2023-02-11T04:19:43.189Z,100.00
2023-02-11T04:22:12.335Z,100.00
2023-02-11T04:24:40.468Z,100.00
2023-02-11T04:27:08.254Z,100.00
2023-02-11T04:29:36.292Z,100.00
2023-02-11T04:32:04.137Z,100.00
2023-02-11T04:34:31.983Z,100.00
2023-02-11T04:36:59.723Z,100.00
2023-02-11T04:39:28.819Z,100.00
2023-02-11T04:41:56.666Z,100.00
2023-02-11T04:44:24.541Z,100.00
2023-02-11T04:46:52.322Z,99.97
2023-02-11T04:49:20.139Z,99.78
2023-02-11T04:51:49.505Z,99.97
2023-02-11T04:54:17.646Z,100.00
2023-02-11T04:56:47.177Z,100.00
2023-02-11T04:59:14.913Z,99.60
2023-02-11T05:01:42.997Z,99.06
2023-02-11T05:04:10.808Z,99.03
2023-02-11T05:06:39.768Z,98.56
2023-02-11T05:09:07.828Z,98.68
2023-02-11T05:11:36.670Z,98.41
2023-02-11T05:14:06.081Z,97.86
2023-02-11T05:16:34.352Z,97.32
2023-02-11T05:19:02.303Z,95.35
2023-02-11T05:21:30.071Z,94.78
2023-02-11T05:23:58.065Z,94.28
2023-02-11T05:26:26.438Z,94.45
2023-02-11T05:28:54.288Z,94.01
2023-02-11T05:31:23.531Z,93.79
2023-02-11T05:33:51.456Z,94.03
2023-02-11T05:36:19.219Z,94.29
2023-02-11T05:38:46.944Z,93.98
2023-02-11T05:41:14.702Z,94.51
2023-02-11T05:43:42.449Z,94.36
2023-02-11T05:46:10.216Z,94.51
2023-02-11T05:48:39.342Z,94.48
2023-02-11T05:51:07.102Z,94.39
2023-02-11T05:53:34.878Z,93.88
2023-02-11T05:56:02.964Z,93.52
2023-02-11T05:58:30.703Z,93.92
2023-02-11T06:00:58.437Z,93.21
2023-02-11T06:03:26.258Z,92.69
2023-02-11T06:05:55.374Z,93.00
2023-02-11T06:08:23.146Z,92.92
2023-02-11T06:10:50.929Z,92.56
2023-02-11T06:13:19.716Z,92.29
2023-02-11T06:15:57.268Z,91.54
2023-02-11T06:18:25.433Z,91.60
2023-02-11T06:20:53.235Z,91.20
2023-02-11T06:23:22.725Z,91.39
2023-02-11T06:25:51.322Z,90.57
2023-02-11T06:28:19.509Z,90.42
2023-02-11T06:30:47.306Z,89.76
2023-02-11T06:33:15.116Z,89.77
2023-02-11T06:35:42.914Z,89.56
2023-02-11T06:38:10.651Z,90.02
2023-02-11T06:40:39.801Z,90.36
2023-02-11T06:43:07.525Z,90.47
2023-02-11T06:45:35.269Z,90.95
2023-02-11T06:48:03.069Z,91.00
2023-02-11T06:50:30.842Z,90.77
2023-02-11T06:53:00.129Z,90.43
2023-02-11T06:55:28.039Z,90.88
2023-02-11T06:57:57.118Z,90.68
2023-02-11T07:00:25.544Z,90.02
2023-02-11T07:02:53.716Z,89.60
2023-02-11T07:05:21.975Z,89.56
2023-02-11T07:07:49.728Z,89.86
2023-02-11T07:10:17.620Z,90.21
2023-02-11T07:12:45.354Z,89.87
2023-02-11T07:15:14.507Z,89.56
2023-02-11T07:17:42.344Z,89.40
2023-02-11T07:20:12.450Z,89.94
2023-02-11T07:22:40.200Z,89.39
2023-02-11T07:25:08.432Z,88.64
2023-02-11T07:27:36.170Z,89.19
2023-02-11T07:30:06.992Z,88.45
2023-02-11T07:32:36.521Z,87.97
2023-02-11T07:35:04.929Z,87.80
2023-02-11T07:37:34.658Z,87.82
2023-02-11T07:40:02.604Z,87.14
2023-02-11T07:42:30.344Z,86.15
2023-02-11T07:44:58.139Z,85.18
2023-02-11T07:47:25.957Z,85.30
2023-02-11T07:49:56.688Z,85.42
2023-02-11T07:52:24.576Z,85.30
2023-02-11T07:54:52.352Z,85.01
2023-02-11T07:57:20.089Z,84.90
2023-02-11T07:59:47.856Z,84.65
2023-02-11T08:02:15.681Z,85.27
2023-02-11T08:04:43.421Z,85.41
2023-02-11T08:07:16.113Z,85.05
2023-02-11T08:09:44.152Z,84.72
2023-02-11T08:12:12.170Z,84.70
2023-02-11T08:14:39.938Z,84.46
2023-02-11T08:17:07.732Z,84.57
2023-02-11T08:19:35.467Z,84.75
2023-02-11T08:22:03.222Z,84.25
2023-02-11T08:24:32.449Z,83.54
2023-02-11T08:27:00.207Z,83.28
2023-02-11T08:29:27.962Z,82.87
2023-02-11T08:31:55.866Z,82.83
2023-02-11T08:34:23.663Z,82.27
2023-02-11T08:36:51.400Z,82.23
2023-02-11T08:39:21.570Z,81.93
2023-02-11T08:41:52.784Z,81.50
2023-02-11T08:44:22.055Z,81.75
2023-02-11T08:46:50.379Z,81.47
2023-02-11T08:49:18.328Z,81.03
2023-02-11T08:51:46.616Z,80.82
2023-02-11T08:54:14.405Z,80.02
2023-02-11T08:56:42.649Z,79.82
2023-02-11T08:59:14.604Z,79.64
2023-02-11T09:01:44.185Z,79.60
2023-02-11T09:04:12.197Z,79.49
2023-02-11T09:06:40.118Z,78.70
2023-02-11T09:09:11.106Z,78.32
2023-02-11T09:11:39.390Z,77.47
2023-02-11T09:14:07.341Z,77.20
2023-02-11T09:16:37.484Z,77.30
2023-02-11T09:19:07.020Z,77.46
2023-02-11T09:21:34.767Z,76.63
2023-02-11T09:24:02.766Z,76.41
2023-02-11T09:26:32.830Z,75.81
2023-02-11T09:29:00.740Z,75.97
2023-02-11T09:31:31.044Z,76.25
2023-02-11T09:34:02.168Z,76.14
2023-02-11T09:36:32.514Z,75.75
2023-02-11T09:39:02.509Z,74.49
2023-02-11T09:42:09.897Z,74.50
2023-02-11T09:44:40.248Z,73.42
2023-02-11T09:47:23.637Z,72.64
2023-02-11T09:49:55.694Z,72.80
2023-02-11T09:52:32.420Z,72.39
2023-02-11T09:55:03.096Z,72.14
2023-02-11T09:57:34.664Z,72.18
2023-02-11T10:00:03.819Z,71.92
2023-02-11T10:02:45.041Z,71.58
2023-02-11T10:05:43.764Z,71.95
2023-02-11T10:08:18.866Z,71.83
2023-02-11T10:10:53.710Z,71.57
2023-02-11T10:13:42.766Z,71.15
2023-02-11T10:16:29.536Z,71.71
2023-02-11T10:19:14.119Z,71.74
2023-02-11T10:21:52.850Z,70.17
2023-02-11T10:24:21.788Z,69.58
2023-02-11T10:26:50.097Z,69.62
2023-02-11T10:29:32.644Z,69.29
2023-02-11T10:32:04.085Z,69.02
2023-02-11T10:34:31.986Z,68.21
2023-02-11T10:37:01.429Z,68.09
2023-02-11T10:39:29.558Z,67.12
2023-02-11T10:42:03.584Z,66.91
2023-02-11T10:44:34.460Z,67.19
2023-02-11T10:47:10.367Z,67.96
2023-02-11T10:49:41.017Z,67.77
2023-02-11T10:52:21.325Z,67.67
2023-02-11T10:55:04.027Z,68.24
2023-02-11T10:57:36.044Z,68.02
2023-02-11T11:00:20.262Z,67.43
2023-02-11T11:02:55.177Z,67.49
2023-02-11T11:05:29.963Z,67.46
2023-02-11T11:08:00.969Z,67.39
2023-02-11T11:10:37.288Z,67.76
2023-02-11T11:13:05.092Z,67.55
2023-02-11T11:15:33.531Z,68.21
2023-02-11T11:18:21.440Z,68.05
2023-02-11T11:20:58.371Z,67.73
2023-02-11T11:23:29.480Z,67.32
2023-02-11T11:26:05.135Z,67.20
2023-02-11T11:28:38.808Z,66.40
2023-02-11T11:31:13.304Z,66.05
2023-02-11T11:33:44.460Z,65.52
2023-02-11T11:36:16.624Z,64.86
2023-02-11T11:38:59.394Z,64.51
2023-02-11T11:41:29.432Z,64.30
2023-02-11T11:44:03.345Z,63.19
2023-02-11T11:46:35.221Z,63.25
2023-02-11T11:49:14.206Z,63.21
2023-02-11T11:51:46.365Z,63.43
2023-02-11T11:54:19.410Z,63.76
2023-02-11T11:56:54.425Z,63.22
2023-02-11T11:59:23.269Z,62.73
2023-02-11T12:02:08.727Z,63.13
2023-02-11T12:04:46.568Z,62.57
2023-02-11T12:07:27.736Z,61.99
2023-02-11T12:10:19.882Z,62.30
2023-02-11T12:12:55.603Z,62.09
2023-02-11T12:15:34.075Z,62.12
2023-02-11T12:18:23.381Z,61.76
2023-02-11T12:21:08.794Z,61.73
2023-02-11T12:23:51.860Z,60.75
2023-02-11T12:26:23.047Z,61.41
2023-02-11T12:29:05.687Z,60.94
2023-02-11T12:31:46.910Z,61.09
2023-02-11T12:34:30.521Z,61.51
2023-02-11T12:37:08.034Z,61.11
2023-02-11T12:39:45.350Z,61.07
2023-02-11T12:42:56.256Z,60.99
2023-02-11T12:45:35.004Z,60.90
2023-02-11T12:48:18.070Z,60.68
2023-02-11T12:50:56.785Z,61.08
2023-02-11T12:53:45.001Z,60.79
2023-02-11T12:56:20.597Z,60.57
2023-02-11T12:58:56.616Z,60.01
2023-02-11T13:01:28.708Z,60.90
2023-02-11T13:04:00.822Z,60.51
2023-02-11T13:06:34.692Z,60.70
2023-02-11T13:09:05.596Z,60.83
2023-02-11T13:11:40.835Z,60.44
2023-02-11T13:14:17.305Z,60.29
2023-02-11T13:16:47.495Z,60.61
2023-02-11T13:19:22.410Z,60.72
2023-02-11T13:22:11.988Z,61.01
2023-02-11T13:24:45.250Z,61.39
2023-02-11T13:27:23.971Z,62.35
2023-02-11T13:30:21.471Z,62.01
2023-02-11T13:33:06.593Z,62.63
2023-02-11T13:35:36.243Z,62.87
2023-02-11T13:38:06.520Z,62.99
2023-02-11T13:40:36.266Z,63.98
2023-02-11T13:43:06.094Z,63.84
2023-02-11T13:45:42.692Z,64.09
2023-02-11T13:48:18.863Z,63.91
2023-02-11T13:50:49.379Z,63.87
2023-02-11T13:53:18.674Z,63.94
2023-02-11T13:55:49.281Z,63.85
2023-02-11T13:58:20.116Z,63.99
2023-02-11T14:00:52.040Z,64.16
2023-02-11T14:03:44.431Z,64.24
2023-02-11T14:06:36.242Z,64.59
2023-02-11T14:09:25.071Z,64.72
2023-02-11T14:11:55.418Z,64.73
2023-02-11T14:14:25.435Z,64.72
2023-02-11T14:17:34.319Z,64.86
2023-02-11T14:20:24.039Z,65.21
2023-02-11T14:22:54.253Z,65.46
2023-02-11T14:25:25.199Z,65.80
2023-02-11T14:27:57.585Z,66.07
2023-02-11T14:30:42.877Z,66.27
2023-02-11T14:33:48.550Z,66.09
2023-02-11T14:36:35.489Z,66.17
2023-02-11T14:39:14.891Z,66.34
2023-02-11T14:41:45.609Z,66.09
2023-02-11T14:44:17.830Z,66.62
2023-02-11T14:46:47.176Z,66.75
2023-02-11T14:49:25.121Z,66.72
2023-02-11T14:51:56.713Z,66.77
2023-02-11T14:54:27.388Z,66.96
2023-02-11T14:57:11.185Z,67.36
2023-02-11T14:59:39.144Z,67.34
2023-02-11T15:02:22.593Z,67.14
2023-02-11T15:04:51.759Z,67.53
2023-02-11T15:07:19.718Z,67.61
2023-02-11T15:09:50.690Z,67.76
2023-02-11T15:12:23.706Z,67.81
2023-02-11T15:14:55.139Z,67.76
2023-02-11T15:17:25.913Z,67.48
2023-02-11T15:19:57.954Z,67.06
2023-02-11T15:22:27.976Z,67.28
2023-02-11T15:25:00.639Z,67.37
2023-02-11T15:27:28.854Z,67.19
2023-02-11T15:29:56.637Z,67.02
2023-02-11T15:32:25.995Z,66.43
2023-02-11T15:34:56.815Z,66.58
2023-02-11T15:37:27.012Z,66.88
2023-02-11T15:39:55.604Z,66.75
2023-02-11T15:42:25.878Z,67.10
2023-02-11T15:45:12.810Z,67.30
2023-02-11T15:47:40.786Z,67.52
2023-02-11T15:50:22.113Z,67.65
2023-02-11T15:52:50.793Z,67.74
2023-02-11T15:55:20.088Z,68.30
2023-02-11T15:57:54.647Z,70.01
2023-02-11T16:00:25.089Z,68.86
2023-02-11T16:02:53.499Z,68.03
2023-02-11T16:05:34.573Z,68.20
2023-02-11T16:08:14.132Z,68.26
2023-02-11T16:10:58.204Z,68.55
2023-02-11T16:13:28.226Z,68.26
2023-02-11T16:15:58.605Z,68.09
2023-02-11T16:18:38.619Z,67.91
2023-02-11T16:21:24.972Z,68.06
2023-02-11T16:23:57.343Z,68.35
2023-02-11T16:26:30.498Z,68.14
2023-02-11T16:29:08.001Z,68.55
2023-02-11T16:31:38.923Z,68.33
2023-02-11T16:34:13.218Z,68.21
2023-02-11T16:36:42.526Z,68.33
2023-02-11T16:39:11.387Z,68.13
2023-02-11T16:41:39.224Z,68.58
2023-02-11T16:44:07.514Z,68.71
2023-02-11T16:46:35.690Z,68.65
2023-02-11T16:49:10.877Z,68.79
2023-02-11T16:51:43.684Z,69.11
2023-02-11T16:54:16.278Z,69.20
2023-02-11T16:56:44.577Z,69.11
2023-02-11T16:59:12.669Z,69.35
2023-02-11T17:01:42.548Z,69.22
2023-02-11T17:04:17.116Z,69.59
2023-02-11T17:06:48.098Z,70.49
2023-02-11T17:09:20.822Z,70.21
2023-02-11T17:11:49.392Z,70.14
2023-02-11T17:14:17.963Z,70.51
2023-02-11T17:16:47.034Z,70.68
2023-02-11T17:19:16.941Z,70.82
2023-02-11T17:21:47.017Z,70.77
2023-02-11T17:24:15.247Z,70.93
2023-02-11T17:26:43.761Z,71.00
2023-02-11T17:29:13.589Z,70.97
2023-02-11T17:31:42.003Z,70.84
2023-02-11T17:34:10.174Z,70.85
2023-02-11T17:36:38.201Z,70.98
2023-02-11T17:39:08.384Z,70.91
2023-02-11T17:41:38.381Z,71.01
2023-02-11T17:44:06.913Z,70.75
2023-02-11T17:46:35.687Z,71.01
2023-02-11T17:49:04.220Z,70.86
2023-02-11T17:51:34.227Z,71.06
2023-02-11T17:54:03.983Z,70.79
2023-02-11T17:56:36.215Z,71.20
2023-02-11T17:59:04.875Z,71.33
2023-02-11T18:01:34.223Z,71.49
2023-02-11T18:04:02.315Z,71.91
2023-02-11T18:06:30.092Z,72.05
2023-02-11T18:08:59.789Z,72.21
2023-02-11T18:11:27.966Z,72.55
2023-02-11T18:13:57.266Z,72.71
2023-02-11T18:16:27.759Z,72.73
2023-02-11T18:18:55.933Z,72.65
2023-02-11T18:21:24.206Z,72.81
2023-02-11T18:23:52.239Z,72.85
2023-02-11T18:26:22.282Z,73.19
2023-02-11T18:28:50.206Z,72.96
2023-02-11T18:31:20.094Z,73.06
2023-02-11T18:33:48.463Z,73.13
2023-02-11T18:36:16.443Z,72.71
2023-02-11T18:38:45.158Z,73.20
2023-02-11T18:41:13.845Z,72.82
2023-02-11T18:43:43.011Z,72.84
2023-02-11T18:46:12.581Z,72.98
2023-02-11T18:48:42.030Z,72.82
2023-02-11T18:51:11.030Z,72.82
2023-02-11T18:53:39.000Z,73.07
2023-02-11T18:56:12.426Z,72.90
2023-02-11T18:58:40.771Z,73.22
2023-02-11T19:01:13.176Z,73.31
2023-02-11T19:03:42.963Z,73.68
2023-02-11T19:06:15.753Z,73.91
2023-02-11T19:08:43.909Z,74.18
2023-02-11T19:11:11.920Z,74.31
2023-02-11T19:13:40.179Z,74.25
2023-02-11T19:16:11.311Z,74.80
2023-02-11T19:18:39.688Z,74.91
2023-02-11T19:21:10.001Z,75.30
2023-02-11T19:23:38.605Z,75.35
2023-02-11T19:26:06.697Z,75.28
2023-02-11T19:28:37.060Z,74.98
2023-02-11T19:31:10.134Z,75.40
2023-02-11T19:33:38.103Z,75.42
2023-02-11T19:36:07.785Z,75.30
2023-02-11T19:38:37.107Z,75.26
2023-02-11T19:41:05.261Z,74.91
2023-02-11T19:43:33.042Z,75.46
2023-02-11T19:46:02.321Z,75.57
2023-02-11T19:48:30.277Z,75.71
2023-02-11T19:50:58.393Z,75.64
2023-02-11T19:53:26.131Z,75.57
2023-02-11T19:55:55.245Z,75.87
2023-02-11T19:58:23.048Z,75.74
2023-02-11T20:00:50.804Z,75.75
2023-02-11T20:03:18.604Z,75.73
2023-02-11T20:05:47.790Z,75.78
2023-02-11T20:08:17.093Z,75.19
2023-02-11T20:10:44.894Z,75.50
2023-02-11T20:13:13.991Z,75.56
2023-02-11T20:15:41.863Z,75.62
2023-02-11T20:18:09.656Z,75.10
2023-02-11T20:20:39.202Z,75.11
2023-02-11T20:23:07.080Z,74.75
2023-02-11T20:25:34.901Z,74.91
2023-02-11T20:28:02.690Z,74.88
2023-02-11T20:30:31.817Z,74.63
2023-02-11T20:32:59.674Z,74.53
2023-02-11T20:35:27.449Z,74.56
2023-02-11T20:37:55.199Z,74.83
2023-02-11T20:40:23.019Z,74.49
2023-02-11T20:42:50.747Z,74.85
2023-02-11T20:45:18.636Z,75.11
2023-02-11T20:47:47.774Z,75.21
2023-02-11T20:50:15.542Z,75.22
2023-02-11T20:52:43.282Z,74.69
2023-02-11T20:55:11.076Z,74.93
2023-02-11T20:57:38.836Z,75.00
2023-02-11T21:00:08.732Z,75.09
2023-02-11T21:02:36.548Z,75.11
2023-02-11T21:05:06.101Z,75.04
2023-02-11T21:07:33.835Z,75.38
2023-02-11T21:10:01.616Z,75.31
2023-02-11T21:12:29.340Z,75.26
2023-02-11T21:14:57.973Z,75.12
2023-02-11T21:17:26.514Z,75.28
2023-02-11T21:19:54.267Z,75.53
2023-02-11T21:22:23.344Z,75.20
2023-02-11T21:24:51.310Z,75.56
2023-02-11T21:27:19.169Z,75.61
2023-02-11T21:29:54.153Z,75.98
2023-02-11T21:32:22.616Z,76.01
2023-02-11T21:34:50.344Z,76.03
2023-02-11T21:37:18.103Z,76.55
2023-02-11T21:39:47.284Z,76.49
2023-02-11T21:42:15.023Z,76.52
2023-02-11T21:44:42.777Z,76.65
2023-02-11T21:47:10.544Z,76.84
2023-02-11T21:49:38.273Z,90.04
2023-02-11T21:52:06.148Z,83.21
2023-02-11T21:54:34.040Z,78.34
2023-02-11T21:57:03.966Z,77.15
2023-02-11T21:59:32.689Z,77.10
2023-02-11T22:02:00.482Z,76.98
2023-02-11T22:04:28.321Z,77.14
2023-02-11T22:06:56.088Z,76.96
2023-02-11T22:09:23.813Z,76.62
2023-02-11T22:11:51.731Z,76.62
2023-02-11T22:14:20.840Z,76.77
2023-02-11T22:16:49.147Z,76.61
2023-02-11T22:19:17.393Z,76.92
2023-02-11T22:21:45.132Z,76.69
2023-02-11T22:24:13.065Z,77.35
2023-02-11T22:26:41.081Z,77.79
2023-02-11T22:29:08.821Z,78.34
2023-02-11T22:31:38.022Z,78.59
2023-02-11T22:34:06.912Z,78.54
2023-02-11T22:36:36.281Z,78.54
2023-02-11T22:39:07.131Z,78.34
2023-02-11T22:41:35.582Z,78.40
2023-02-11T22:44:03.314Z,78.07
2023-02-11T22:46:31.428Z,77.63
2023-02-11T22:49:00.603Z,78.08
2023-02-11T22:51:30.493Z,78.02
2023-02-11T22:54:00.098Z,77.40
2023-02-11T22:56:29.170Z,77.49
2023-02-11T22:58:58.517Z,77.85
2023-02-11T23:01:26.523Z,77.99
2023-02-11T23:03:54.453Z,78.03
2023-02-11T23:06:23.632Z,78.44
2023-02-11T23:08:51.411Z,78.49
2023-02-11T23:11:21.355Z,78.56
2023-02-11T23:13:51.212Z,78.31
2023-02-11T23:16:21.093Z,78.50
2023-02-11T23:18:49.916Z,78.30
2023-02-11T23:21:21.219Z,78.23
2023-02-11T23:23:54.607Z,77.54
2023-02-11T23:26:22.433Z,77.76
2023-02-11T23:28:50.318Z,77.35
2023-02-11T23:31:20.095Z,77.35
2023-02-11T23:33:48.946Z,77.46
2023-02-11T23:36:17.818Z,77.46
2023-02-11T23:38:45.915Z,77.57
2023-02-11T23:41:15.809Z,77.44
2023-02-11T23:43:43.838Z,76.98
2023-02-11T23:46:11.945Z,76.78
2023-02-11T23:48:40.510Z,76.59
2023-02-11T23:51:09.614Z,77.01
2023-02-11T23:53:37.546Z,77.59
2023-02-11T23:56:08.552Z,77.82
2023-02-11T23:58:38.001Z,77.77
